createdAt,value
2018-09-25T00:02:21.908Z,3.63
2018-09-25T00:04:55.579Z,7.17
2018-09-25T00:07:29.267Z,4.27
2018-09-25T00:10:02.963Z,6.13
2018-09-25T00:12:36.668Z,3.40
2018-09-25T00:15:10.311Z,4.40
2018-09-25T00:17:43.876Z,4.83
2018-09-25T00:20:17.473Z,3.80
2018-09-25T00:22:51.156Z,3.30
2018-09-25T00:25:24.676Z,3.57
2018-09-25T00:27:58.360Z,2.40
2018-09-25T00:30:32.520Z,4.60
2018-09-25T00:33:06.112Z,4.73
2018-09-25T00:35:39.979Z,5.13
2018-09-25T00:38:13.407Z,4.23
2018-09-25T00:40:46.966Z,5.23
2018-09-25T00:43:20.484Z,3.43
2018-09-25T00:45:53.930Z,3.33
2018-09-25T00:48:27.484Z,6.17
2018-09-25T00:51:01.075Z,5.33
2018-09-25T00:53:34.736Z,5.73
2018-09-25T00:56:08.290Z,5.67
2018-09-25T00:58:41.958Z,6.83
2018-09-25T01:01:15.516Z,6.43
2018-09-25T01:03:49.125Z,4.80
2018-09-25T01:06:22.807Z,5.57
2018-09-25T01:08:56.407Z,5.33
2018-09-25T01:11:30.107Z,5.57
2018-09-25T01:14:03.645Z,3.60
2018-09-25T01:16:37.269Z,5.60
2018-09-25T01:19:10.864Z,5.40
2018-09-25T01:21:44.399Z,8.87
2018-09-25T01:24:18.028Z,5.57
2018-09-25T01:26:51.739Z,6.13
2018-09-25T01:29:25.403Z,6.43
2018-09-25T01:31:59.113Z,6.23
2018-09-25T01:34:32.701Z,7.50
2018-09-25T01:37:06.295Z,4.60
2018-09-25T01:39:39.859Z,5.10
2018-09-25T01:42:13.554Z,6.30
2018-09-25T01:44:47.116Z,6.27
2018-09-25T01:47:20.812Z,4.57
2018-09-25T01:49:54.384Z,4.73
2018-09-25T01:52:27.980Z,4.63
2018-09-25T01:55:01.537Z,5.37
2018-09-25T01:57:35.189Z,5.23
2018-09-25T02:00:08.866Z,4.17
2018-09-25T02:02:42.485Z,4.30
2018-09-25T02:05:16.191Z,4.17
2018-09-25T02:07:49.648Z,5.00
2018-09-25T02:10:23.206Z,5.60
2018-09-25T02:12:56.783Z,4.83
2018-09-25T02:15:30.328Z,5.97
2018-09-25T02:18:03.933Z,4.57
2018-09-25T02:20:37.494Z,5.90
2018-09-25T02:23:11.185Z,4.77
2018-09-25T02:25:44.613Z,5.40
2018-09-25T02:28:18.246Z,5.67
2018-09-25T02:30:51.843Z,4.00
2018-09-25T02:33:25.358Z,4.97
2018-09-25T02:35:58.900Z,5.47
2018-09-25T02:38:32.455Z,4.63
2018-09-25T02:41:06.039Z,4.53
2018-09-25T02:43:39.712Z,7.07
2018-09-25T02:46:13.183Z,6.67
2018-09-25T02:48:46.897Z,4.87
2018-09-25T02:51:20.554Z,6.93
2018-09-25T02:53:54.238Z,5.90
2018-09-25T02:56:27.764Z,7.60
2018-09-25T02:59:01.334Z,8.40
2018-09-25T03:01:35.066Z,7.77
2018-09-25T03:04:08.748Z,5.23
2018-09-25T03:06:42.258Z,5.40
2018-09-25T03:09:15.852Z,4.30
2018-09-25T03:11:49.417Z,5.97
2018-09-25T03:14:23.051Z,5.60
2018-09-25T03:16:56.747Z,5.77
2018-09-25T03:19:30.376Z,6.80
2018-09-25T03:22:03.928Z,7.57
2018-09-25T03:24:37.427Z,5.43
2018-09-25T03:27:10.956Z,4.33
2018-09-25T03:29:44.493Z,8.10
2018-09-25T03:32:17.910Z,5.27
2018-09-25T03:34:51.690Z,5.70
2018-09-25T03:37:25.233Z,4.90
2018-09-25T03:39:58.701Z,7.33
2018-09-25T03:42:32.286Z,5.10
2018-09-25T03:45:06.022Z,4.53
2018-09-25T03:47:39.573Z,6.30
2018-09-25T03:50:13.332Z,5.20
2018-09-25T03:52:46.741Z,3.93
2018-09-25T03:55:20.291Z,4.80
2018-09-25T03:57:53.881Z,9.30
2018-09-25T04:00:27.435Z,5.90
2018-09-25T04:03:00.977Z,4.33
2018-09-25T04:05:34.490Z,7.00
2018-09-25T04:08:08.157Z,6.90
2018-09-25T04:10:41.832Z,5.87
2018-09-25T04:13:15.281Z,6.00
2018-09-25T04:15:48.836Z,6.50
2018-09-25T04:18:22.350Z,5.97
2018-09-25T04:20:56.029Z,6.50
2018-09-25T04:23:29.604Z,7.67
2018-09-25T04:26:03.184Z,6.20
2018-09-25T04:28:36.809Z,6.50
2018-09-25T04:31:10.321Z,7.17
2018-09-25T04:33:43.951Z,6.50
2018-09-25T04:36:17.665Z,5.83
2018-09-25T04:38:51.176Z,6.00
2018-09-25T04:41:24.748Z,6.00
2018-09-25T04:43:58.335Z,9.20
2018-09-25T04:46:31.750Z,5.77
2018-09-25T04:49:05.289Z,6.27
2018-09-25T04:51:38.942Z,5.83
2018-09-25T04:54:12.512Z,5.77
2018-09-25T04:56:46.071Z,6.63
2018-09-25T04:59:19.744Z,4.97
2018-09-25T05:01:53.382Z,3.47
2018-09-25T05:04:26.998Z,6.93
2018-09-25T05:07:00.564Z,9.50
2018-09-25T05:09:34.132Z,9.43
2018-09-25T05:12:07.663Z,9.33
2018-09-25T05:14:41.525Z,5.07
2018-09-25T05:17:15.007Z,8.17
2018-09-25T05:19:48.619Z,5.17
2018-09-25T05:22:22.183Z,10.90
2018-09-25T05:24:55.874Z,6.07
2018-09-25T05:27:29.425Z,10.43
2018-09-25T05:30:04.039Z,7.67
2018-09-25T05:32:37.616Z,6.70
2018-09-25T05:35:11.324Z,5.57
2018-09-25T05:37:44.899Z,8.80
2018-09-25T05:40:18.444Z,8.63
2018-09-25T05:42:52.003Z,6.03
2018-09-25T05:45:25.562Z,4.97
2018-09-25T05:47:59.342Z,6.60
2018-09-25T05:50:32.916Z,4.07
2018-09-25T05:53:06.870Z,6.73
2018-09-25T05:55:40.627Z,6.30
2018-09-25T05:58:14.304Z,7.57
2018-09-25T06:00:47.840Z,7.77
2018-09-25T06:03:21.404Z,7.60
2018-09-25T06:05:54.932Z,7.97
2018-09-25T06:08:28.452Z,5.87
2018-09-25T06:11:01.990Z,7.13
2018-09-25T06:13:35.538Z,7.17
2018-09-25T06:16:09.157Z,5.53
2018-09-25T06:18:42.781Z,4.67
2018-09-25T06:21:16.302Z,5.70
2018-09-25T06:23:49.884Z,7.17
2018-09-25T06:26:23.426Z,7.97
2018-09-25T06:28:57.108Z,9.97
2018-09-25T06:31:30.647Z,5.37
2018-09-25T06:34:04.340Z,8.27
2018-09-25T06:36:38.028Z,11.40
2018-09-25T06:39:12.896Z,6.63
2018-09-25T06:41:46.456Z,8.50
2018-09-25T06:44:20.127Z,6.30
2018-09-25T06:46:53.672Z,8.57
2018-09-25T06:49:27.412Z,6.77
2018-09-25T06:52:01.001Z,7.97
2018-09-25T06:54:35.207Z,9.47
2018-09-25T06:57:08.741Z,6.37
2018-09-25T06:59:42.316Z,6.00
2018-09-25T07:02:15.937Z,9.33
2018-09-25T07:04:49.476Z,7.67
2018-09-25T07:07:23.098Z,10.50
2018-09-25T07:09:56.689Z,4.33
2018-09-25T07:12:30.072Z,7.60
2018-09-25T07:15:03.520Z,8.03
2018-09-25T07:17:37.247Z,16.23
2018-09-25T07:20:10.784Z,7.13
2018-09-25T07:22:44.409Z,7.10
2018-09-25T07:25:18.092Z,5.60
2018-09-25T07:27:51.635Z,5.50
2018-09-25T07:30:25.192Z,4.23
2018-09-25T07:32:58.748Z,6.50
2018-09-25T07:35:32.309Z,5.23
2018-09-25T07:38:06.004Z,5.40
2018-09-25T07:40:39.596Z,5.27
2018-09-25T07:43:13.165Z,5.63
2018-09-25T07:45:46.814Z,4.10
2018-09-25T07:48:20.501Z,5.07
2018-09-25T07:50:54.061Z,7.00
2018-09-25T07:53:27.590Z,5.50
2018-09-25T07:56:01.134Z,4.43
2018-09-25T07:58:34.705Z,6.13
2018-09-25T08:01:08.425Z,4.30
2018-09-25T08:03:42.215Z,5.27
2018-09-25T08:06:15.713Z,5.40
2018-09-25T08:08:49.237Z,7.33
2018-09-25T08:11:22.814Z,4.00
2018-09-25T08:13:56.381Z,3.33
2018-09-25T08:16:29.965Z,8.77
2018-09-25T08:19:03.514Z,4.93
2018-09-25T08:21:37.114Z,5.73
2018-09-25T08:24:10.784Z,5.53
2018-09-25T08:26:44.381Z,4.13
2018-09-25T08:29:17.918Z,4.13
2018-09-25T08:31:51.491Z,5.87
2018-09-25T08:34:25.056Z,8.37
2018-09-25T08:36:58.641Z,5.43
2018-09-25T08:39:32.158Z,5.00
2018-09-25T08:42:05.799Z,5.73
2018-09-25T08:44:39.340Z,6.90
2018-09-25T08:47:13.053Z,5.67
2018-09-25T08:49:46.442Z,4.00
2018-09-25T08:52:19.992Z,7.50
2018-09-25T08:54:53.673Z,6.33
2018-09-25T08:57:27.321Z,5.00
2018-09-25T09:00:00.833Z,6.03
2018-09-25T09:02:34.389Z,4.67
2018-09-25T09:05:07.996Z,5.33
2018-09-25T09:07:41.688Z,5.43
2018-09-25T09:10:15.320Z,5.03
2018-09-25T09:12:49.179Z,8.57
2018-09-25T09:15:22.698Z,5.53
2018-09-25T09:17:56.260Z,4.73
2018-09-25T09:20:29.825Z,6.43
2018-09-25T09:23:03.325Z,6.40
2018-09-25T09:25:37.033Z,7.20
2018-09-25T09:28:10.632Z,4.23
2018-09-25T09:30:44.212Z,5.97
2018-09-25T09:33:17.805Z,6.73
2018-09-25T09:35:51.480Z,4.47
2018-09-25T09:38:25.167Z,3.73
2018-09-25T09:40:58.788Z,8.10
2018-09-25T09:43:32.306Z,6.53
2018-09-25T09:46:05.910Z,5.13
2018-09-25T09:48:39.465Z,7.30
2018-09-25T09:51:13.136Z,6.03
2018-09-25T09:53:46.723Z,8.27
2018-09-25T09:56:20.366Z,5.10
2018-09-25T09:58:54.112Z,4.80
2018-09-25T10:01:27.674Z,9.03
2018-09-25T10:04:01.308Z,7.93
2018-09-25T10:06:34.893Z,3.97
2018-09-25T10:09:08.458Z,11.13
2018-09-25T10:11:42.132Z,7.87
2018-09-25T10:14:15.795Z,9.13
2018-09-25T10:16:49.516Z,8.97
2018-09-25T10:19:23.097Z,5.70
2018-09-25T10:21:56.797Z,6.57
2018-09-25T10:24:30.774Z,7.83
2018-09-25T10:27:04.411Z,10.27
2018-09-25T10:29:37.988Z,6.77
2018-09-25T10:32:11.522Z,5.67
2018-09-25T10:34:45.190Z,8.40
2018-09-25T10:37:18.846Z,8.07
2018-09-25T10:39:52.457Z,6.13
2018-09-25T10:42:26.121Z,5.50
2018-09-25T10:44:59.682Z,3.87
2018-09-25T10:47:33.231Z,3.93
2018-09-25T10:50:06.893Z,4.67
2018-09-25T10:52:40.597Z,4.93
2018-09-25T10:55:14.315Z,5.20
2018-09-25T10:57:47.841Z,6.57
2018-09-25T11:00:21.404Z,6.87
2018-09-25T11:02:55.068Z,4.27
2018-09-25T11:05:28.524Z,3.53
2018-09-25T11:08:02.254Z,3.83
2018-09-25T11:10:35.981Z,4.10
2018-09-25T11:13:09.549Z,5.03
2018-09-25T11:15:43.105Z,5.60
2018-09-25T11:18:16.891Z,6.50
2018-09-25T11:20:50.629Z,3.80
2018-09-25T11:23:24.212Z,4.10
2018-09-25T11:25:57.944Z,6.70
2018-09-25T11:28:31.509Z,3.23
2018-09-25T11:31:05.091Z,3.63
2018-09-25T11:33:38.793Z,2.97
2018-09-25T11:36:12.354Z,5.10
2018-09-25T11:38:45.887Z,3.13
2018-09-25T11:41:19.520Z,2.40
2018-09-25T11:43:53.178Z,3.37
2018-09-25T11:46:26.894Z,3.33
2018-09-25T11:49:00.654Z,2.50
2018-09-25T11:51:34.201Z,4.97
2018-09-25T11:54:08.269Z,2.83
2018-09-25T11:56:41.859Z,3.60
2018-09-25T11:59:15.535Z,2.23
2018-09-25T12:01:49.126Z,4.13
2018-09-25T12:04:22.733Z,6.47
2018-09-25T12:06:56.271Z,2.73
2018-09-25T12:09:29.799Z,3.37
2018-09-25T12:12:03.493Z,4.13
2018-09-25T12:14:37.043Z,2.37
2018-09-25T12:17:10.642Z,3.87
2018-09-25T12:19:44.372Z,3.80
2018-09-25T12:22:17.953Z,2.97
2018-09-25T12:24:51.595Z,4.93
2018-09-25T12:27:25.400Z,4.57
2018-09-25T12:29:58.927Z,3.23
2018-09-25T12:32:33.532Z,3.13
2018-09-25T12:35:07.597Z,4.70
2018-09-25T12:37:41.136Z,3.47
2018-09-25T12:40:14.703Z,4.20
2018-09-25T12:42:48.143Z,3.23
2018-09-25T12:45:22.251Z,3.53
2018-09-25T12:47:55.977Z,5.23
2018-09-25T12:50:29.545Z,4.53
2018-09-25T12:53:03.258Z,6.23
2018-09-25T12:55:36.896Z,2.87
2018-09-25T12:58:10.589Z,3.83
2018-09-25T13:00:44.269Z,4.10
2018-09-25T13:03:18.135Z,6.93
2018-09-25T13:05:51.696Z,4.60
2018-09-25T13:08:25.270Z,5.17
2018-09-25T13:10:58.820Z,2.03
2018-09-25T13:13:32.288Z,6.13
2018-09-25T13:16:05.921Z,3.13
2018-09-25T13:18:39.427Z,9.33
2018-09-25T13:21:13.236Z,2.67
2018-09-25T13:23:46.908Z,4.53
2018-09-25T13:26:20.603Z,6.37
2018-09-25T13:28:54.259Z,5.57
2018-09-25T13:31:27.995Z,2.23
2018-09-25T13:34:01.713Z,3.20
2018-09-25T13:36:35.272Z,4.27
2018-09-25T13:39:09.053Z,3.53
2018-09-25T13:41:43.482Z,2.83
2018-09-25T13:44:17.083Z,3.90
2018-09-25T13:46:50.629Z,4.07
2018-09-25T13:49:24.314Z,5.20
2018-09-25T13:51:57.930Z,2.70
2018-09-25T13:54:31.519Z,4.93
2018-09-25T13:57:05.137Z,5.13
2018-09-25T13:59:38.853Z,6.17
2018-09-25T14:02:12.445Z,4.63
2018-09-25T14:04:45.879Z,2.53
2018-09-25T14:07:19.458Z,2.50
2018-09-25T14:09:53.030Z,9.63
2018-09-25T14:12:26.696Z,3.07
2018-09-25T14:15:00.382Z,2.80
2018-09-25T14:17:33.943Z,2.80
2018-09-25T14:20:07.501Z,3.63
2018-09-25T14:22:41.069Z,2.63
2018-09-25T14:25:14.745Z,2.23
2018-09-25T14:27:48.376Z,2.93
2018-09-25T14:30:21.950Z,2.23
2018-09-25T14:32:55.502Z,5.00
2018-09-25T14:35:29.247Z,4.10
2018-09-25T14:38:02.891Z,5.90
2018-09-25T14:40:36.425Z,3.30
2018-09-25T14:43:10.222Z,1.53
2018-09-25T14:45:43.804Z,3.53
2018-09-25T14:48:18.100Z,5.60
2018-09-25T14:50:51.840Z,2.73
2018-09-25T14:53:25.513Z,3.03
2018-09-25T14:56:01.162Z,2.43
2018-09-25T14:58:34.671Z,3.53
2018-09-25T15:01:08.350Z,3.43
2018-09-25T15:03:41.877Z,2.00
2018-09-25T15:06:15.466Z,3.60
2018-09-25T15:08:48.974Z,3.97
2018-09-25T15:11:22.637Z,3.50
2018-09-25T15:13:56.350Z,3.30
2018-09-25T15:16:30.066Z,2.87
2018-09-25T15:19:04.056Z,1.83
2018-09-25T15:21:37.728Z,2.90
2018-09-25T15:24:11.544Z,2.47
2018-09-25T15:26:45.252Z,3.43
2018-09-25T15:29:18.921Z,2.43
2018-09-25T15:31:52.508Z,3.40
2018-09-25T15:34:26.224Z,3.00
2018-09-25T15:36:59.690Z,4.73
2018-09-25T15:39:33.381Z,3.47
2018-09-25T15:42:07.050Z,2.23
2018-09-25T15:44:40.567Z,4.07
2018-09-25T15:47:14.341Z,3.50
2018-09-25T15:49:47.896Z,5.03
2018-09-25T15:52:21.620Z,4.30
2018-09-25T15:54:55.248Z,3.67
2018-09-25T15:57:28.909Z,2.07
2018-09-25T16:00:02.462Z,3.40
2018-09-25T16:02:36.022Z,3.17
2018-09-25T16:05:09.721Z,4.13
2018-09-25T16:07:43.160Z,4.20
2018-09-25T16:10:16.705Z,2.10
2018-09-25T16:12:50.365Z,4.00
2018-09-25T16:15:23.875Z,3.20
2018-09-25T16:17:57.443Z,3.37
2018-09-25T16:20:31.090Z,2.30
2018-09-25T16:23:04.710Z,3.43
2018-09-25T16:25:38.352Z,2.70
2018-09-25T16:28:11.881Z,3.37
2018-09-25T16:30:45.563Z,5.60
2018-09-25T16:33:19.177Z,2.97
2018-09-25T16:35:52.758Z,3.63
2018-09-25T16:38:26.405Z,2.23
2018-09-25T16:40:59.939Z,2.77
2018-09-25T16:43:33.505Z,4.43
2018-09-25T16:46:07.372Z,3.30
2018-09-25T16:48:40.939Z,2.20
2018-09-25T16:51:14.605Z,2.97
2018-09-25T16:53:48.206Z,4.17
2018-09-25T16:56:21.753Z,3.97
2018-09-25T16:58:55.472Z,4.43
2018-09-25T17:01:29.060Z,3.20
2018-09-25T17:04:02.770Z,4.07
2018-09-25T17:06:36.333Z,5.60
2018-09-25T17:09:11.682Z,2.00
2018-09-25T17:11:45.234Z,4.43
2018-09-25T17:14:18.967Z,6.37
2018-09-25T17:16:52.626Z,4.33
2018-09-25T17:19:26.166Z,3.97
2018-09-25T17:21:59.893Z,6.37
2018-09-25T17:24:33.428Z,2.77
2018-09-25T17:27:07.001Z,4.83
2018-09-25T17:29:40.744Z,5.83
2018-09-25T17:32:14.399Z,3.83
2018-09-25T17:34:47.863Z,9.50
2018-09-25T17:37:21.553Z,6.20
2018-09-25T17:39:55.007Z,9.57
2018-09-25T17:42:28.550Z,10.17
2018-09-25T17:45:02.121Z,14.47
2018-09-25T17:47:35.925Z,18.03
2018-09-25T17:50:09.797Z,21.13
2018-09-25T17:52:43.323Z,23.03
2018-09-25T17:55:17.013Z,27.60
2018-09-25T17:57:50.532Z,41.80
2018-09-25T18:00:24.128Z,48.70
2018-09-25T18:02:57.697Z,40.17
2018-09-25T18:05:31.269Z,50.70
2018-09-25T18:08:04.914Z,50.33
2018-09-25T18:10:38.513Z,47.90
2018-09-25T18:13:12.136Z,69.07
2018-09-25T18:15:45.706Z,114.40
2018-09-25T18:18:19.278Z,146.37
2018-09-25T18:20:52.849Z,149.00
2018-09-25T18:23:26.393Z,117.77
2018-09-25T18:25:59.948Z,117.40
2018-09-25T18:28:33.551Z,96.80
2018-09-25T18:31:07.081Z,73.40
2018-09-25T18:33:40.790Z,63.33
2018-09-25T18:36:14.514Z,60.13
2018-09-25T18:38:48.148Z,53.73
2018-09-25T18:41:22.878Z,40.77
2018-09-25T18:43:56.485Z,35.33
2018-09-25T18:46:30.050Z,27.87
2018-09-25T18:49:03.576Z,30.00
2018-09-25T18:51:37.147Z,37.67
2018-09-25T18:54:10.817Z,29.97
2018-09-25T18:56:44.532Z,24.53
2018-09-25T18:59:18.062Z,24.60
2018-09-25T19:01:51.499Z,24.93
2018-09-25T19:04:25.085Z,19.03
2018-09-25T19:06:58.675Z,19.53
2018-09-25T19:09:32.173Z,15.83
2018-09-25T19:12:05.759Z,14.67
2018-09-25T19:14:39.321Z,12.40
2018-09-25T19:17:12.982Z,14.70
2018-09-25T19:19:46.544Z,11.87
2018-09-25T19:22:20.077Z,8.57
2018-09-25T19:24:53.763Z,9.43
2018-09-25T19:27:27.446Z,7.80
2018-09-25T19:30:00.950Z,9.30
2018-09-25T19:32:34.512Z,6.77
2018-09-25T19:35:08.145Z,6.10
2018-09-25T19:37:41.856Z,6.40
2018-09-25T19:40:15.323Z,4.90
2018-09-25T19:42:48.849Z,5.80
2018-09-25T19:45:22.408Z,8.10
2018-09-25T19:47:55.938Z,4.40
2018-09-25T19:50:29.803Z,8.03
2018-09-25T19:53:03.315Z,5.23
2018-09-25T19:55:37.012Z,7.33
2018-09-25T19:58:10.551Z,5.73
2018-09-25T20:00:44.192Z,5.77
2018-09-25T20:03:17.761Z,6.63
2018-09-25T20:05:51.329Z,8.67
2018-09-25T20:08:24.917Z,7.40
2018-09-25T20:10:58.394Z,5.13
2018-09-25T20:13:31.973Z,5.97
2018-09-25T20:16:05.544Z,5.70
2018-09-25T20:18:39.129Z,8.10
2018-09-25T20:21:19.593Z,8.53
2018-09-25T20:23:53.893Z,5.60
2018-09-25T20:26:27.567Z,6.27
2018-09-25T20:29:01.148Z,10.93
2018-09-25T20:31:34.724Z,6.33
2018-09-25T20:34:08.281Z,6.50
2018-09-25T20:36:41.917Z,6.13
2018-09-25T20:39:15.593Z,6.87
2018-09-25T20:41:49.230Z,5.57
2018-09-25T20:44:22.922Z,5.97
2018-09-25T20:46:56.562Z,6.90
2018-09-25T20:49:30.163Z,5.60
2018-09-25T20:52:03.782Z,9.47
2018-09-25T20:54:37.345Z,7.27
2018-09-25T20:57:10.914Z,5.53
2018-09-25T20:59:44.485Z,8.90
2018-09-25T21:02:18.235Z,5.93
2018-09-25T21:04:51.816Z,6.23
2018-09-25T21:07:25.325Z,7.30
2018-09-25T21:09:58.913Z,6.13
2018-09-25T21:12:32.616Z,5.47
2018-09-25T21:15:06.332Z,6.00
2018-09-25T21:17:39.906Z,4.37
2018-09-25T21:20:13.461Z,5.63
2018-09-25T21:22:47.062Z,7.23
2018-09-25T21:25:20.743Z,6.80
2018-09-25T21:27:54.320Z,5.87
2018-09-25T21:30:28.091Z,6.57
2018-09-25T21:33:01.674Z,7.50
2018-09-25T21:35:35.280Z,5.87
2018-09-25T21:38:09.539Z,6.20
2018-09-25T21:40:43.077Z,4.17
2018-09-25T21:43:16.664Z,6.37
2018-09-25T21:45:50.432Z,4.80
2018-09-25T21:48:24.074Z,5.00
2018-09-25T21:50:57.797Z,5.37
2018-09-25T21:53:31.274Z,6.77
2018-09-25T21:56:05.358Z,6.17
2018-09-25T21:58:39.296Z,4.43
2018-09-25T22:01:12.900Z,5.83
2018-09-25T22:03:46.697Z,5.57
2018-09-25T22:06:20.563Z,7.77
2018-09-25T22:08:54.231Z,7.17
2018-09-25T22:11:27.893Z,7.60
2018-09-25T22:14:01.448Z,4.97
2018-09-25T22:16:35.116Z,6.60
2018-09-25T22:19:09.068Z,6.97
2018-09-25T22:21:42.728Z,6.40
2018-09-25T22:24:16.493Z,7.13
2018-09-25T22:26:50.435Z,6.60
2018-09-25T22:29:23.969Z,4.60
2018-09-25T22:31:57.652Z,4.70
2018-09-25T22:34:31.299Z,6.30
2018-09-25T22:37:04.834Z,5.47
2018-09-25T22:39:38.428Z,4.37
2018-09-25T22:42:11.976Z,6.60
2018-09-25T22:44:45.584Z,3.73
2018-09-25T22:47:19.141Z,8.27
2018-09-25T22:49:52.651Z,7.13
2018-09-25T22:52:26.212Z,3.10
2018-09-25T22:54:59.874Z,5.40
2018-09-25T22:57:33.561Z,5.20
2018-09-25T23:00:07.238Z,9.70
2018-09-25T23:02:40.944Z,5.03
2018-09-25T23:05:14.653Z,7.43
2018-09-25T23:07:48.224Z,4.23
2018-09-25T23:10:21.824Z,5.90
2018-09-25T23:12:55.375Z,7.73
2018-09-25T23:15:29.135Z,9.13
2018-09-25T23:18:02.723Z,4.87
2018-09-25T23:20:36.278Z,6.63
2018-09-25T23:23:09.861Z,5.50
2018-09-25T23:25:43.437Z,4.00
2018-09-25T23:28:17.155Z,4.03
2018-09-25T23:30:50.764Z,5.37
2018-09-25T23:33:24.363Z,3.83
2018-09-25T23:35:57.950Z,3.77
2018-09-25T23:38:31.476Z,4.17
2018-09-25T23:41:11.844Z,7.73
2018-09-25T23:43:52.324Z,3.10
2018-09-25T23:48:30.176Z,3.20
2018-09-25T23:51:03.768Z,3.30
2018-09-25T23:53:41.461Z,4.40
2018-09-25T23:56:15.163Z,4.23
2018-09-25T23:58:53.668Z,4.93
